sensor_id;sensor_type;location;lat;lon;timestamp;temperature;humidity
14511;DHT22;7341;50.930;4.038;2022-12-07T00:01:26;5.70;99.90
14511;DHT22;7341;50.930;4.038;2022-12-07T00:03:55;5.70;99.90
14511;DHT22;7341;50.930;4.038;2022-12-07T00:06:26;5.70;99.90
14511;DHT22;7341;50.930;4.038;2022-12-07T00:08:53;5.60;99.90
14511;DHT22;7341;50.930;4.038;2022-12-07T00:11:21;5.60;99.90
14511;DHT22;7341;50.930;4.038;2022-12-07T00:13:51;5.50;99.90
14511;DHT22;7341;50.930;4.038;2022-12-07T00:16:20;5.50;99.90
14511;DHT22;7341;50.930;4.038;2022-12-07T00:18:47;5.50;99.90
14511;DHT22;7341;50.930;4.038;2022-12-07T00:21:17;5.50;99.90
14511;DHT22;7341;50.930;4.038;2022-12-07T00:23:45;5.60;99.90
14511;DHT22;7341;50.930;4.038;2022-12-07T00:26:17;5.50;99.90
14511;DHT22;7341;50.930;4.038;2022-12-07T00:28:45;5.50;99.90
14511;DHT22;7341;50.930;4.038;2022-12-07T00:31:13;5.40;99.90
14511;DHT22;7341;50.930;4.038;2022-12-07T00:33:40;5.40;99.90
14511;DHT22;7341;50.930;4.038;2022-12-07T00:36:09;5.50;99.90
14511;DHT22;7341;50.930;4.038;2022-12-07T00:38:38;5.50;99.90
14511;DHT22;7341;50.930;4.038;2022-12-07T00:41:06;5.40;99.90
14511;DHT22;7341;50.930;4.038;2022-12-07T00:43:33;5.50;99.90
14511;DHT22;7341;50.930;4.038;2022-12-07T00:46:00;5.50;99.90
14511;DHT22;7341;50.930;4.038;2022-12-07T00:48:27;5.60;99.90
14511;DHT22;7341;50.930;4.038;2022-12-07T00:50:54;5.60;99.90
14511;DHT22;7341;50.930;4.038;2022-12-07T00:53:21;5.60;99.90
14511;DHT22;7341;50.930;4.038;2022-12-07T00:55:49;5.60;99.90
14511;DHT22;7341;50.930;4.038;2022-12-07T00:58:15;5.60;99.90
14511;DHT22;7341;50.930;4.038;2022-12-07T01:00:43;5.60;99.90
14511;DHT22;7341;50.930;4.038;2022-12-07T01:03:11;5.60;99.90
14511;DHT22;7341;50.930;4.038;2022-12-07T01:05:38;5.60;99.90
14511;DHT22;7341;50.930;4.038;2022-12-07T01:08:06;5.70;99.90
14511;DHT22;7341;50.930;4.038;2022-12-07T01:10:33;5.70;99.90
14511;DHT22;7341;50.930;4.038;2022-12-07T01:13:01;5.60;99.90
14511;DHT22;7341;50.930;4.038;2022-12-07T01:15:28;5.50;99.90
14511;DHT22;7341;50.930;4.038;2022-12-07T01:17:54;5.50;99.90
14511;DHT22;7341;50.930;4.038;2022-12-07T01:20:21;5.50;99.90
14511;DHT22;7341;50.930;4.038;2022-12-07T01:22:48;5.50;99.90
14511;DHT22;7341;50.930;4.038;2022-12-07T01:25:15;5.50;99.90
14511;DHT22;7341;50.930;4.038;2022-12-07T01:27:42;5.40;99.90
14511;DHT22;7341;50.930;4.038;2022-12-07T01:30:13;5.40;99.90
14511;DHT22;7341;50.930;4.038;2022-12-07T01:32:40;5.40;99.90
14511;DHT22;7341;50.930;4.038;2022-12-07T01:35:07;5.40;99.90
14511;DHT22;7341;50.930;4.038;2022-12-07T01:37:35;5.50;99.90
14511;DHT22;7341;50.930;4.038;2022-12-07T01:40:04;5.50;99.90
14511;DHT22;7341;50.930;4.038;2022-12-07T01:42:31;5.50;99.90
14511;DHT22;7341;50.930;4.038;2022-12-07T01:48:14;5.50;99.90
14511;DHT22;7341;50.930;4.038;2022-12-07T01:50:43;5.50;99.90
14511;DHT22;7341;50.930;4.038;2022-12-07T01:53:12;5.60;99.90
14511;DHT22;7341;50.930;4.038;2022-12-07T01:55:42;5.60;99.90
14511;DHT22;7341;50.930;4.038;2022-12-07T01:58:11;5.50;99.90
14511;DHT22;7341;50.930;4.038;2022-12-07T02:00:39;5.50;99.90
14511;DHT22;7341;50.930;4.038;2022-12-07T02:03:08;5.50;99.90
14511;DHT22;7341;50.930;4.038;2022-12-07T02:05:38;5.40;99.90
14511;DHT22;7341;50.930;4.038;2022-12-07T02:08:07;5.40;99.90
14511;DHT22;7341;50.930;4.038;2022-12-07T02:10:34;5.30;99.90
14511;DHT22;7341;50.930;4.038;2022-12-07T02:13:04;5.40;99.90
14511;DHT22;7341;50.930;4.038;2022-12-07T02:15:46;5.40;99.90
14511;DHT22;7341;50.930;4.038;2022-12-07T02:18:19;5.40;99.90
14511;DHT22;7341;50.930;4.038;2022-12-07T02:20:53;5.30;99.90
14511;DHT22;7341;50.930;4.038;2022-12-07T02:23:40;5.30;99.90
14511;DHT22;7341;50.930;4.038;2022-12-07T02:26:27;5.30;99.90
14511;DHT22;7341;50.930;4.038;2022-12-07T02:29:11;5.20;99.90
14511;DHT22;7341;50.930;4.038;2022-12-07T02:31:43;5.20;99.90
14511;DHT22;7341;50.930;4.038;2022-12-07T02:34:20;5.20;99.90
14511;DHT22;7341;50.930;4.038;2022-12-07T02:36:54;5.30;99.90
14511;DHT22;7341;50.930;4.038;2022-12-07T02:39:28;5.30;99.90
14511;DHT22;7341;50.930;4.038;2022-12-07T02:42:02;5.30;99.90
14511;DHT22;7341;50.930;4.038;2022-12-07T02:44:32;5.20;99.90
14511;DHT22;7341;50.930;4.038;2022-12-07T02:47:02;5.30;99.90
14511;DHT22;7341;50.930;4.038;2022-12-07T02:49:30;5.50;99.90
14511;DHT22;7341;50.930;4.038;2022-12-07T02:51:57;5.50;99.90
14511;DHT22;7341;50.930;4.038;2022-12-07T02:54:24;5.40;99.90
14511;DHT22;7341;50.930;4.038;2022-12-07T02:56:55;5.30;99.90
14511;DHT22;7341;50.930;4.038;2022-12-07T02:59:33;5.30;99.90
14511;DHT22;7341;50.930;4.038;2022-12-07T03:02:11;5.20;99.90
14511;DHT22;7341;50.930;4.038;2022-12-07T03:04:47;5.30;99.90
14511;DHT22;7341;50.930;4.038;2022-12-07T03:07:26;5.30;99.90
14511;DHT22;7341;50.930;4.038;2022-12-07T03:10:01;5.30;99.90
14511;DHT22;7341;50.930;4.038;2022-12-07T03:12:32;5.30;99.90
14511;DHT22;7341;50.930;4.038;2022-12-07T03:15:08;5.10;99.90
14511;DHT22;7341;50.930;4.038;2022-12-07T03:17:38;5.20;99.90
14511;DHT22;7341;50.930;4.038;2022-12-07T03:20:13;5.20;99.90
14511;DHT22;7341;50.930;4.038;2022-12-07T03:22:43;5.20;99.90
14511;DHT22;7341;50.930;4.038;2022-12-07T03:25:13;5.10;99.90
14511;DHT22;7341;50.930;4.038;2022-12-07T03:27:44;5.10;99.90
14511;DHT22;7341;50.930;4.038;2022-12-07T03:30:16;5.10;99.90
14511;DHT22;7341;50.930;4.038;2022-12-07T03:32:47;5.20;99.90
14511;DHT22;7341;50.930;4.038;2022-12-07T03:35:19;5.30;99.90
14511;DHT22;7341;50.930;4.038;2022-12-07T03:37:50;5.30;99.90
14511;DHT22;7341;50.930;4.038;2022-12-07T03:40:22;5.30;99.90
14511;DHT22;7341;50.930;4.038;2022-12-07T03:42:51;5.30;99.90
14511;DHT22;7341;50.930;4.038;2022-12-07T03:45:23;5.20;99.90
14511;DHT22;7341;50.930;4.038;2022-12-07T03:47:58;5.10;99.90
14511;DHT22;7341;50.930;4.038;2022-12-07T03:50:34;5.10;99.90
14511;DHT22;7341;50.930;4.038;2022-12-07T03:53:08;5.10;99.90
14511;DHT22;7341;50.930;4.038;2022-12-07T03:55:40;5.00;99.90
14511;DHT22;7341;50.930;4.038;2022-12-07T03:58:11;5.00;99.90
14511;DHT22;7341;50.930;4.038;2022-12-07T04:00:40;5.10;99.90
14511;DHT22;7341;50.930;4.038;2022-12-07T04:03:07;4.90;99.90
14511;DHT22;7341;50.930;4.038;2022-12-07T04:05:33;4.90;99.90
14511;DHT22;7341;50.930;4.038;2022-12-07T04:08:01;4.90;99.90
14511;DHT22;7341;50.930;4.038;2022-12-07T04:10:27;4.90;99.90
14511;DHT22;7341;50.930;4.038;2022-12-07T04:12:55;4.90;99.90
14511;DHT22;7341;50.930;4.038;2022-12-07T04:15:21;4.90;99.90
14511;DHT22;7341;50.930;4.038;2022-12-07T04:17:49;4.90;99.90
14511;DHT22;7341;50.930;4.038;2022-12-07T04:20:17;4.90;99.90
14511;DHT22;7341;50.930;4.038;2022-12-07T04:22:43;4.90;99.90
14511;DHT22;7341;50.930;4.038;2022-12-07T04:25:10;4.60;99.90
14511;DHT22;7341;50.930;4.038;2022-12-07T04:27:37;4.70;99.90
14511;DHT22;7341;50.930;4.038;2022-12-07T04:30:05;4.70;99.90
14511;DHT22;7341;50.930;4.038;2022-12-07T04:32:32;4.80;99.90
14511;DHT22;7341;50.930;4.038;2022-12-07T04:35:00;4.80;99.90
14511;DHT22;7341;50.930;4.038;2022-12-07T04:37:26;4.80;99.90
14511;DHT22;7341;50.930;4.038;2022-12-07T04:39:53;4.70;99.90
14511;DHT22;7341;50.930;4.038;2022-12-07T04:42:20;4.70;99.90
14511;DHT22;7341;50.930;4.038;2022-12-07T04:44:47;4.70;99.90
14511;DHT22;7341;50.930;4.038;2022-12-07T04:47:13;4.60;99.90
14511;DHT22;7341;50.930;4.038;2022-12-07T04:49:40;4.70;99.90
14511;DHT22;7341;50.930;4.038;2022-12-07T04:52:08;4.70;99.90
14511;DHT22;7341;50.930;4.038;2022-12-07T04:54:35;4.70;99.90
14511;DHT22;7341;50.930;4.038;2022-12-07T04:57:02;4.60;99.90
14511;DHT22;7341;50.930;4.038;2022-12-07T04:59:28;4.60;99.90
14511;DHT22;7341;50.930;4.038;2022-12-07T05:01:55;4.60;99.90
14511;DHT22;7341;50.930;4.038;2022-12-07T05:04:22;4.60;99.90
14511;DHT22;7341;50.930;4.038;2022-12-07T05:06:49;4.60;99.90
14511;DHT22;7341;50.930;4.038;2022-12-07T05:09:17;4.50;99.90
14511;DHT22;7341;50.930;4.038;2022-12-07T05:11:43;4.50;99.90
14511;DHT22;7341;50.930;4.038;2022-12-07T05:14:13;4.50;99.90
14511;DHT22;7341;50.930;4.038;2022-12-07T05:16:40;4.60;99.90
14511;DHT22;7341;50.930;4.038;2022-12-07T05:19:07;4.50;99.90
14511;DHT22;7341;50.930;4.038;2022-12-07T05:21:35;4.50;99.90
14511;DHT22;7341;50.930;4.038;2022-12-07T05:24:03;4.40;99.90
14511;DHT22;7341;50.930;4.038;2022-12-07T05:26:31;4.40;99.90
14511;DHT22;7341;50.930;4.038;2022-12-07T05:28:58;4.50;99.90
14511;DHT22;7341;50.930;4.038;2022-12-07T05:31:25;4.60;99.90
14511;DHT22;7341;50.930;4.038;2022-12-07T05:33:53;4.50;99.90
14511;DHT22;7341;50.930;4.038;2022-12-07T05:36:20;4.50;99.90
14511;DHT22;7341;50.930;4.038;2022-12-07T05:38:47;4.60;99.90
14511;DHT22;7341;50.930;4.038;2022-12-07T05:41:15;4.60;99.90
14511;DHT22;7341;50.930;4.038;2022-12-07T05:44:02;4.60;99.90
14511;DHT22;7341;50.930;4.038;2022-12-07T05:46:28;4.60;99.90
14511;DHT22;7341;50.930;4.038;2022-12-07T05:48:55;4.70;99.90
14511;DHT22;7341;50.930;4.038;2022-12-07T05:51:22;4.70;99.90
14511;DHT22;7341;50.930;4.038;2022-12-07T05:53:49;4.70;99.90
14511;DHT22;7341;50.930;4.038;2022-12-07T05:56:16;4.60;99.90
14511;DHT22;7341;50.930;4.038;2022-12-07T05:58:43;4.60;99.90
14511;DHT22;7341;50.930;4.038;2022-12-07T06:01:28;4.70;99.90
14511;DHT22;7341;50.930;4.038;2022-12-07T06:03:55;4.70;99.90
14511;DHT22;7341;50.930;4.038;2022-12-07T06:06:22;4.80;99.90
14511;DHT22;7341;50.930;4.038;2022-12-07T06:08:48;4.80;99.90
14511;DHT22;7341;50.930;4.038;2022-12-07T06:11:15;4.90;99.90
14511;DHT22;7341;50.930;4.038;2022-12-07T06:13:59;5.20;99.90
14511;DHT22;7341;50.930;4.038;2022-12-07T06:16:28;5.30;99.90
14511;DHT22;7341;50.930;4.038;2022-12-07T06:18:57;5.30;99.90
14511;DHT22;7341;50.930;4.038;2022-12-07T06:21:24;5.30;99.90
14511;DHT22;7341;50.930;4.038;2022-12-07T06:23:52;5.30;99.90
14511;DHT22;7341;50.930;4.038;2022-12-07T06:26:19;5.20;99.90
14511;DHT22;7341;50.930;4.038;2022-12-07T06:28:46;5.10;99.90
14511;DHT22;7341;50.930;4.038;2022-12-07T06:31:13;5.10;99.90
14511;DHT22;7341;50.930;4.038;2022-12-07T06:33:42;5.10;99.90
14511;DHT22;7341;50.930;4.038;2022-12-07T06:36:09;5.10;99.90
14511;DHT22;7341;50.930;4.038;2022-12-07T06:38:36;5.10;99.90
14511;DHT22;7341;50.930;4.038;2022-12-07T06:41:03;5.10;99.90
14511;DHT22;7341;50.930;4.038;2022-12-07T06:43:30;5.00;99.90
14511;DHT22;7341;50.930;4.038;2022-12-07T06:45:57;5.00;99.90
14511;DHT22;7341;50.930;4.038;2022-12-07T06:48:23;4.90;99.90
14511;DHT22;7341;50.930;4.038;2022-12-07T06:50:52;4.90;99.90
14511;DHT22;7341;50.930;4.038;2022-12-07T06:53:19;4.80;99.90
14511;DHT22;7341;50.930;4.038;2022-12-07T06:55:46;4.70;99.90
14511;DHT22;7341;50.930;4.038;2022-12-07T06:58:12;4.70;99.90
14511;DHT22;7341;50.930;4.038;2022-12-07T07:00:39;4.70;99.90
14511;DHT22;7341;50.930;4.038;2022-12-07T07:03:06;4.70;99.90
14511;DHT22;7341;50.930;4.038;2022-12-07T07:05:33;4.70;99.90
14511;DHT22;7341;50.930;4.038;2022-12-07T07:08:01;4.70;99.90
14511;DHT22;7341;50.930;4.038;2022-12-07T07:10:28;4.80;99.90
14511;DHT22;7341;50.930;4.038;2022-12-07T07:12:55;4.90;99.90
14511;DHT22;7341;50.930;4.038;2022-12-07T07:15:21;4.90;99.90
14511;DHT22;7341;50.930;4.038;2022-12-07T07:17:48;4.90;99.90
14511;DHT22;7341;50.930;4.038;2022-12-07T07:20:15;5.00;99.90
14511;DHT22;7341;50.930;4.038;2022-12-07T07:22:42;4.90;99.90
14511;DHT22;7341;50.930;4.038;2022-12-07T07:25:12;5.00;99.90
14511;DHT22;7341;50.930;4.038;2022-12-07T07:27:39;5.10;99.90
14511;DHT22;7341;50.930;4.038;2022-12-07T07:30:07;5.20;99.90
14511;DHT22;7341;50.930;4.038;2022-12-07T07:32:34;5.10;99.90
14511;DHT22;7341;50.930;4.038;2022-12-07T07:35:01;5.10;99.90
14511;DHT22;7341;50.930;4.038;2022-12-07T07:37:28;5.00;99.90
14511;DHT22;7341;50.930;4.038;2022-12-07T07:39:54;5.10;99.90
14511;DHT22;7341;50.930;4.038;2022-12-07T07:42:23;5.20;99.90
14511;DHT22;7341;50.930;4.038;2022-12-07T07:44:50;5.10;99.90
14511;DHT22;7341;50.930;4.038;2022-12-07T07:47:16;5.00;99.90
14511;DHT22;7341;50.930;4.038;2022-12-07T07:49:43;5.00;99.90
14511;DHT22;7341;50.930;4.038;2022-12-07T07:52:10;5.00;99.90
14511;DHT22;7341;50.930;4.038;2022-12-07T07:54:36;4.90;99.90
14511;DHT22;7341;50.930;4.038;2022-12-07T07:57:03;4.90;99.90
14511;DHT22;7341;50.930;4.038;2022-12-07T07:59:31;4.80;99.90
14511;DHT22;7341;50.930;4.038;2022-12-07T08:01:58;4.80;99.90
14511;DHT22;7341;50.930;4.038;2022-12-07T08:04:25;4.80;99.90
14511;DHT22;7341;50.930;4.038;2022-12-07T08:06:51;4.80;99.90
14511;DHT22;7341;50.930;4.038;2022-12-07T08:09:18;4.80;99.90
14511;DHT22;7341;50.930;4.038;2022-12-07T08:11:45;4.90;99.90
14511;DHT22;7341;50.930;4.038;2022-12-07T08:14:13;4.90;99.90
14511;DHT22;7341;50.930;4.038;2022-12-07T08:16:41;5.00;99.90
14511;DHT22;7341;50.930;4.038;2022-12-07T08:19:08;5.00;99.90
14511;DHT22;7341;50.930;4.038;2022-12-07T08:21:34;5.00;99.90
14511;DHT22;7341;50.930;4.038;2022-12-07T08:24:01;4.90;99.90
14511;DHT22;7341;50.930;4.038;2022-12-07T08:26:28;4.90;99.90
14511;DHT22;7341;50.930;4.038;2022-12-07T08:28:54;5.00;99.90
14511;DHT22;7341;50.930;4.038;2022-12-07T08:31:21;4.90;99.90
14511;DHT22;7341;50.930;4.038;2022-12-07T08:33:49;4.90;99.90
14511;DHT22;7341;50.930;4.038;2022-12-07T08:36:17;4.90;99.90
14511;DHT22;7341;50.930;4.038;2022-12-07T08:38:44;4.80;99.90
14511;DHT22;7341;50.930;4.038;2022-12-07T08:41:11;4.90;99.90
14511;DHT22;7341;50.930;4.038;2022-12-07T08:43:37;4.90;99.90
14511;DHT22;7341;50.930;4.038;2022-12-07T08:46:08;4.90;99.90
14511;DHT22;7341;50.930;4.038;2022-12-07T08:48:38;5.00;99.90
14511;DHT22;7341;50.930;4.038;2022-12-07T08:51:08;5.10;99.90
14511;DHT22;7341;50.930;4.038;2022-12-07T08:53:37;5.20;99.90
14511;DHT22;7341;50.930;4.038;2022-12-07T08:56:04;5.20;99.90
14511;DHT22;7341;50.930;4.038;2022-12-07T08:58:32;5.20;99.90
14511;DHT22;7341;50.930;4.038;2022-12-07T09:00:59;5.40;99.90
14511;DHT22;7341;50.930;4.038;2022-12-07T09:03:26;5.40;99.90
14511;DHT22;7341;50.930;4.038;2022-12-07T09:05:53;5.40;99.90
14511;DHT22;7341;50.930;4.038;2022-12-07T09:08:23;5.50;99.90
14511;DHT22;7341;50.930;4.038;2022-12-07T09:10:51;5.60;99.90
14511;DHT22;7341;50.930;4.038;2022-12-07T09:13:18;5.70;99.90
14511;DHT22;7341;50.930;4.038;2022-12-07T09:15:45;5.90;99.90
14511;DHT22;7341;50.930;4.038;2022-12-07T09:18:11;6.00;99.90
14511;DHT22;7341;50.930;4.038;2022-12-07T09:20:38;6.10;99.90
14511;DHT22;7341;50.930;4.038;2022-12-07T09:23:05;6.20;99.90
14511;DHT22;7341;50.930;4.038;2022-12-07T09:25:34;6.30;99.90
14511;DHT22;7341;50.930;4.038;2022-12-07T09:28:01;6.50;99.90
14511;DHT22;7341;50.930;4.038;2022-12-07T09:30:28;6.20;99.90
14511;DHT22;7341;50.930;4.038;2022-12-07T09:32:55;6.20;99.90
14511;DHT22;7341;50.930;4.038;2022-12-07T09:35:23;6.20;99.90
14511;DHT22;7341;50.930;4.038;2022-12-07T09:37:50;6.10;99.90
14511;DHT22;7341;50.930;4.038;2022-12-07T09:40:18;6.10;99.90
14511;DHT22;7341;50.930;4.038;2022-12-07T09:42:51;6.10;99.90
14511;DHT22;7341;50.930;4.038;2022-12-07T09:45:21;6.10;99.90
14511;DHT22;7341;50.930;4.038;2022-12-07T09:47:48;6.30;99.90
14511;DHT22;7341;50.930;4.038;2022-12-07T09:50:16;6.40;99.90
14511;DHT22;7341;50.930;4.038;2022-12-07T09:52:46;6.40;99.90
14511;DHT22;7341;50.930;4.038;2022-12-07T09:55:16;6.40;99.90
14511;DHT22;7341;50.930;4.038;2022-12-07T09:57:47;6.40;99.90
14511;DHT22;7341;50.930;4.038;2022-12-07T10:00:16;6.50;99.90
14511;DHT22;7341;50.930;4.038;2022-12-07T10:02:44;6.60;99.90
14511;DHT22;7341;50.930;4.038;2022-12-07T10:05:16;6.50;99.90
14511;DHT22;7341;50.930;4.038;2022-12-07T10:07:43;6.70;99.90
14511;DHT22;7341;50.930;4.038;2022-12-07T10:10:14;6.40;99.90
14511;DHT22;7341;50.930;4.038;2022-12-07T10:12:58;6.60;99.90
14511;DHT22;7341;50.930;4.038;2022-12-07T10:15:50;6.50;99.90
14511;DHT22;7341;50.930;4.038;2022-12-07T10:18:30;6.50;99.90
14511;DHT22;7341;50.930;4.038;2022-12-07T10:21:12;6.40;99.90
14511;DHT22;7341;50.930;4.038;2022-12-07T10:23:41;6.40;99.90
14511;DHT22;7341;50.930;4.038;2022-12-07T10:26:27;6.40;99.90
14511;DHT22;7341;50.930;4.038;2022-12-07T10:28:59;6.50;99.90
14511;DHT22;7341;50.930;4.038;2022-12-07T10:31:26;6.60;99.90
14511;DHT22;7341;50.930;4.038;2022-12-07T10:33:54;6.60;99.90
14511;DHT22;7341;50.930;4.038;2022-12-07T10:36:24;6.60;99.90
14511;DHT22;7341;50.930;4.038;2022-12-07T10:38:58;6.60;99.90
14511;DHT22;7341;50.930;4.038;2022-12-07T10:41:26;6.60;99.90
14511;DHT22;7341;50.930;4.038;2022-12-07T10:43:55;6.50;99.90
14511;DHT22;7341;50.930;4.038;2022-12-07T10:46:51;6.50;99.90
14511;DHT22;7341;50.930;4.038;2022-12-07T10:50:10;6.50;99.90
14511;DHT22;7341;50.930;4.038;2022-12-07T10:52:49;6.60;99.90
14511;DHT22;7341;50.930;4.038;2022-12-07T10:55:23;6.60;99.90
14511;DHT22;7341;50.930;4.038;2022-12-07T10:58:21;6.60;99.90
14511;DHT22;7341;50.930;4.038;2022-12-07T11:00:58;6.50;99.90
14511;DHT22;7341;50.930;4.038;2022-12-07T11:03:54;6.60;99.90
14511;DHT22;7341;50.930;4.038;2022-12-07T11:06:29;6.60;99.90
14511;DHT22;7341;50.930;4.038;2022-12-07T11:09:12;6.60;99.90
14511;DHT22;7341;50.930;4.038;2022-12-07T11:11:49;6.70;99.90
14511;DHT22;7341;50.930;4.038;2022-12-07T11:14:22;6.70;99.90
14511;DHT22;7341;50.930;4.038;2022-12-07T11:16:55;6.70;99.90
14511;DHT22;7341;50.930;4.038;2022-12-07T11:19:46;6.80;99.90
14511;DHT22;7341;50.930;4.038;2022-12-07T11:22:22;6.80;99.90
14511;DHT22;7341;50.930;4.038;2022-12-07T11:24:56;6.90;99.90
14511;DHT22;7341;50.930;4.038;2022-12-07T11:27:32;6.80;99.90
14511;DHT22;7341;50.930;4.038;2022-12-07T11:30:11;6.90;99.90
14511;DHT22;7341;50.930;4.038;2022-12-07T11:32:53;6.90;99.90
14511;DHT22;7341;50.930;4.038;2022-12-07T11:35:36;7.00;99.90
14511;DHT22;7341;50.930;4.038;2022-12-07T11:38:11;7.20;99.90
14511;DHT22;7341;50.930;4.038;2022-12-07T11:40:40;7.00;99.90
14511;DHT22;7341;50.930;4.038;2022-12-07T11:43:15;7.10;99.90
14511;DHT22;7341;50.930;4.038;2022-12-07T11:45:47;7.20;99.90
14511;DHT22;7341;50.930;4.038;2022-12-07T11:48:22;7.20;99.90
14511;DHT22;7341;50.930;4.038;2022-12-07T11:50:54;7.20;99.90
14511;DHT22;7341;50.930;4.038;2022-12-07T11:53:26;7.10;99.90
14511;DHT22;7341;50.930;4.038;2022-12-07T11:55:57;7.00;99.90
14511;DHT22;7341;50.930;4.038;2022-12-07T11:58:46;7.00;99.90
14511;DHT22;7341;50.930;4.038;2022-12-07T12:01:24;7.10;99.90
14511;DHT22;7341;50.930;4.038;2022-12-07T12:03:58;7.20;99.90
14511;DHT22;7341;50.930;4.038;2022-12-07T12:06:29;7.10;99.90
14511;DHT22;7341;50.930;4.038;2022-12-07T12:09:02;7.10;99.90
14511;DHT22;7341;50.930;4.038;2022-12-07T12:11:45;7.20;99.90
14511;DHT22;7341;50.930;4.038;2022-12-07T12:14:32;7.10;99.90
14511;DHT22;7341;50.930;4.038;2022-12-07T12:17:29;7.10;99.90
14511;DHT22;7341;50.930;4.038;2022-12-07T12:20:02;7.20;99.90
14511;DHT22;7341;50.930;4.038;2022-12-07T12:22:37;7.20;99.90
14511;DHT22;7341;50.930;4.038;2022-12-07T12:25:17;7.20;99.90
14511;DHT22;7341;50.930;4.038;2022-12-07T12:27:47;7.20;99.90
14511;DHT22;7341;50.930;4.038;2022-12-07T12:30:32;7.30;99.90
14511;DHT22;7341;50.930;4.038;2022-12-07T12:33:05;7.30;99.90
14511;DHT22;7341;50.930;4.038;2022-12-07T12:35:33;7.30;99.90
14511;DHT22;7341;50.930;4.038;2022-12-07T12:38:32;7.20;99.90
14511;DHT22;7341;50.930;4.038;2022-12-07T12:41:01;7.10;99.90
14511;DHT22;7341;50.930;4.038;2022-12-07T12:43:45;7.10;99.90
14511;DHT22;7341;50.930;4.038;2022-12-07T12:46:51;7.00;99.90
14511;DHT22;7341;50.930;4.038;2022-12-07T12:49:42;7.00;99.90
14511;DHT22;7341;50.930;4.038;2022-12-07T12:58:36;7.00;99.90
14511;DHT22;7341;50.930;4.038;2022-12-07T13:01:33;7.00;99.90
14511;DHT22;7341;50.930;4.038;2022-12-07T13:04:17;6.90;99.90
14511;DHT22;7341;50.930;4.038;2022-12-07T13:06:44;6.90;99.90
14511;DHT22;7341;50.930;4.038;2022-12-07T13:09:19;7.00;99.90
14511;DHT22;7341;50.930;4.038;2022-12-07T13:11:50;6.90;99.90
14511;DHT22;7341;50.930;4.038;2022-12-07T13:14:43;6.90;99.90
14511;DHT22;7341;50.930;4.038;2022-12-07T13:20:46;7.00;99.90
14511;DHT22;7341;50.930;4.038;2022-12-07T13:23:16;7.20;99.90
14511;DHT22;7341;50.930;4.038;2022-12-07T13:25:49;7.20;99.90
14511;DHT22;7341;50.930;4.038;2022-12-07T13:28:20;7.30;99.90
14511;DHT22;7341;50.930;4.038;2022-12-07T13:31:03;7.30;99.90
14511;DHT22;7341;50.930;4.038;2022-12-07T13:33:34;7.40;99.90
14511;DHT22;7341;50.930;4.038;2022-12-07T13:36:02;7.50;99.90
14511;DHT22;7341;50.930;4.038;2022-12-07T13:38:31;7.50;99.90
14511;DHT22;7341;50.930;4.038;2022-12-07T13:41:03;7.50;99.90
14511;DHT22;7341;50.930;4.038;2022-12-07T13:43:43;7.50;99.90
14511;DHT22;7341;50.930;4.038;2022-12-07T13:46:11;7.50;99.90
14511;DHT22;7341;50.930;4.038;2022-12-07T13:48:45;7.40;99.90
14511;DHT22;7341;50.930;4.038;2022-12-07T13:51:18;7.40;99.90
14511;DHT22;7341;50.930;4.038;2022-12-07T13:53:50;7.40;99.90
14511;DHT22;7341;50.930;4.038;2022-12-07T13:56:17;7.50;99.90
14511;DHT22;7341;50.930;4.038;2022-12-07T13:58:45;7.30;99.90
14511;DHT22;7341;50.930;4.038;2022-12-07T14:01:12;7.40;99.90
14511;DHT22;7341;50.930;4.038;2022-12-07T14:03:39;7.40;99.90
14511;DHT22;7341;50.930;4.038;2022-12-07T14:06:15;7.60;99.90
14511;DHT22;7341;50.930;4.038;2022-12-07T14:08:42;7.60;99.90
14511;DHT22;7341;50.930;4.038;2022-12-07T14:11:14;7.60;99.90
14511;DHT22;7341;50.930;4.038;2022-12-07T14:13:51;7.60;99.90
14511;DHT22;7341;50.930;4.038;2022-12-07T14:16:25;7.60;99.90
14511;DHT22;7341;50.930;4.038;2022-12-07T14:18:53;7.60;99.90
14511;DHT22;7341;50.930;4.038;2022-12-07T14:21:22;7.70;99.90
14511;DHT22;7341;50.930;4.038;2022-12-07T14:24:10;7.50;99.90
14511;DHT22;7341;50.930;4.038;2022-12-07T14:26:38;7.40;99.90
14511;DHT22;7341;50.930;4.038;2022-12-07T14:29:37;7.40;99.90
14511;DHT22;7341;50.930;4.038;2022-12-07T14:32:20;7.60;99.90
14511;DHT22;7341;50.930;4.038;2022-12-07T14:34:56;7.70;99.90
14511;DHT22;7341;50.930;4.038;2022-12-07T14:37:24;7.80;99.90
14511;DHT22;7341;50.930;4.038;2022-12-07T14:39:51;7.90;99.90
14511;DHT22;7341;50.930;4.038;2022-12-07T14:42:18;7.90;99.90
14511;DHT22;7341;50.930;4.038;2022-12-07T14:44:47;7.70;99.90
14511;DHT22;7341;50.930;4.038;2022-12-07T14:47:14;7.80;99.90
14511;DHT22;7341;50.930;4.038;2022-12-07T14:49:41;7.90;99.90
14511;DHT22;7341;50.930;4.038;2022-12-07T14:52:14;7.80;99.90
14511;DHT22;7341;50.930;4.038;2022-12-07T14:54:42;7.90;99.90
14511;DHT22;7341;50.930;4.038;2022-12-07T14:57:09;7.80;99.90
14511;DHT22;7341;50.930;4.038;2022-12-07T14:59:37;7.60;99.90
14511;DHT22;7341;50.930;4.038;2022-12-07T15:02:05;7.30;99.90
14511;DHT22;7341;50.930;4.038;2022-12-07T15:04:32;7.10;99.90
14511;DHT22;7341;50.930;4.038;2022-12-07T15:07:02;7.10;99.90
14511;DHT22;7341;50.930;4.038;2022-12-07T15:09:29;6.90;99.90
14511;DHT22;7341;50.930;4.038;2022-12-07T15:11:56;6.40;99.90
14511;DHT22;7341;50.930;4.038;2022-12-07T15:14:22;6.30;99.90
14511;DHT22;7341;50.930;4.038;2022-12-07T15:16:49;6.30;99.90
14511;DHT22;7341;50.930;4.038;2022-12-07T15:19:19;6.40;99.90
14511;DHT22;7341;50.930;4.038;2022-12-07T15:21:48;6.40;99.90
14511;DHT22;7341;50.930;4.038;2022-12-07T15:24:15;6.50;99.90
14511;DHT22;7341;50.930;4.038;2022-12-07T15:26:42;6.50;99.90
14511;DHT22;7341;50.930;4.038;2022-12-07T15:29:09;6.40;99.90
14511;DHT22;7341;50.930;4.038;2022-12-07T15:31:37;6.40;99.90
14511;DHT22;7341;50.930;4.038;2022-12-07T15:34:04;6.50;99.90
14511;DHT22;7341;50.930;4.038;2022-12-07T15:36:34;6.60;99.90
14511;DHT22;7341;50.930;4.038;2022-12-07T15:39:01;6.50;99.90
14511;DHT22;7341;50.930;4.038;2022-12-07T15:41:27;6.50;99.90
14511;DHT22;7341;50.930;4.038;2022-12-07T15:43:54;6.50;99.90
14511;DHT22;7341;50.930;4.038;2022-12-07T15:46:40;6.50;99.90
14511;DHT22;7341;50.930;4.038;2022-12-07T15:49:10;6.60;99.90
14511;DHT22;7341;50.930;4.038;2022-12-07T15:51:39;6.60;99.90
14511;DHT22;7341;50.930;4.038;2022-12-07T15:54:06;6.70;99.90
14511;DHT22;7341;50.930;4.038;2022-12-07T15:56:33;6.60;99.90
14511;DHT22;7341;50.930;4.038;2022-12-07T15:58:59;6.60;99.90
14511;DHT22;7341;50.930;4.038;2022-12-07T16:01:26;6.60;99.90
14511;DHT22;7341;50.930;4.038;2022-12-07T16:03:53;6.50;99.90
14511;DHT22;7341;50.930;4.038;2022-12-07T16:06:20;6.40;99.90
14511;DHT22;7341;50.930;4.038;2022-12-07T16:08:48;6.40;99.90
14511;DHT22;7341;50.930;4.038;2022-12-07T16:11:15;6.30;99.90
14511;DHT22;7341;50.930;4.038;2022-12-07T16:13:41;6.40;99.90
14511;DHT22;7341;50.930;4.038;2022-12-07T16:16:11;6.30;99.90
14511;DHT22;7341;50.930;4.038;2022-12-07T16:18:39;6.20;99.90
14511;DHT22;7341;50.930;4.038;2022-12-07T16:21:05;6.20;99.90
14511;DHT22;7341;50.930;4.038;2022-12-07T16:23:32;6.10;99.90
14511;DHT22;7341;50.930;4.038;2022-12-07T16:26:12;6.10;99.90
14511;DHT22;7341;50.930;4.038;2022-12-07T16:28:39;6.10;99.90
14511;DHT22;7341;50.930;4.038;2022-12-07T16:31:08;6.00;99.90
14511;DHT22;7341;50.930;4.038;2022-12-07T16:33:36;6.10;99.90
14511;DHT22;7341;50.930;4.038;2022-12-07T16:36:05;6.20;99.90
14511;DHT22;7341;50.930;4.038;2022-12-07T16:38:32;6.10;99.90